sensor_id;sensor_type;location;lat;lon;timestamp;temperature;humidity
34815;DHT22;21030;53.912;15.214;2022-10-30T00:00:49;38.90;26.60
34815;DHT22;21030;53.912;15.214;2022-10-30T00:03:16;38.90;26.60
34815;DHT22;21030;53.912;15.214;2022-10-30T00:05:48;38.90;26.60
34815;DHT22;21030;53.912;15.214;2022-10-30T00:08:17;38.90;26.50
34815;DHT22;21030;53.912;15.214;2022-10-30T00:10:45;38.90;26.60
34815;DHT22;21030;53.912;15.214;2022-10-30T00:13:12;39.00;26.50
34815;DHT22;21030;53.912;15.214;2022-10-30T00:15:46;39.00;26.50
34815;DHT22;21030;53.912;15.214;2022-10-30T00:18:13;38.90;26.50
34815;DHT22;21030;53.912;15.214;2022-10-30T00:20:40;38.70;26.60
34815;DHT22;21030;53.912;15.214;2022-10-30T00:23:07;38.50;26.70
34815;DHT22;21030;53.912;15.214;2022-10-30T00:25:35;38.40;26.80
34815;DHT22;21030;53.912;15.214;2022-10-30T00:28:04;38.50;26.90
34815;DHT22;21030;53.912;15.214;2022-10-30T00:30:32;38.00;27.10
34815;DHT22;21030;53.912;15.214;2022-10-30T00:32:59;37.70;27.50
34815;DHT22;21030;53.912;15.214;2022-10-30T00:35:27;37.60;27.70
34815;DHT22;21030;53.912;15.214;2022-10-30T00:37:54;37.70;27.60
34815;DHT22;21030;53.912;15.214;2022-10-30T00:40:21;37.70;27.60
34815;DHT22;21030;53.912;15.214;2022-10-30T00:42:48;37.70;27.50
34815;DHT22;21030;53.912;15.214;2022-10-30T00:45:16;37.80;27.70
34815;DHT22;21030;53.912;15.214;2022-10-30T00:47:58;37.70;27.70
34815;DHT22;21030;53.912;15.214;2022-10-30T00:50:33;38.00;28.00
34815;DHT22;21030;53.912;15.214;2022-10-30T00:53:08;38.00;27.40
34815;DHT22;21030;53.912;15.214;2022-10-30T00:55:42;38.10;27.30
34815;DHT22;21030;53.912;15.214;2022-10-30T00:58:18;38.20;27.30
34815;DHT22;21030;53.912;15.214;2022-10-30T01:00:50;38.20;27.20
34815;DHT22;21030;53.912;15.214;2022-10-30T01:03:20;38.10;27.10
34815;DHT22;21030;53.912;15.214;2022-10-30T01:05:52;38.20;27.70
34815;DHT22;21030;53.912;15.214;2022-10-30T01:08:20;38.40;27.20
34815;DHT22;21030;53.912;15.214;2022-10-30T01:10:48;38.40;26.90
34815;DHT22;21030;53.912;15.214;2022-10-30T01:13:17;38.60;26.90
34815;DHT22;21030;53.912;15.214;2022-10-30T01:18:43;38.70;26.70
34815;DHT22;21030;53.912;15.214;2022-10-30T01:38:43;38.20;27.00
34815;DHT22;21030;53.912;15.214;2022-10-30T01:41:11;38.20;27.00
34815;DHT22;21030;53.912;15.214;2022-10-30T01:43:39;38.10;27.10
34815;DHT22;21030;53.912;15.214;2022-10-30T01:49:01;38.00;27.30
34815;DHT22;21030;53.912;15.214;2022-10-30T01:51:48;38.10;27.30
34815;DHT22;21030;53.912;15.214;2022-10-30T01:59:59;37.80;27.30
34815;DHT22;21030;53.912;15.214;2022-10-30T02:02:28;37.80;27.40
34815;DHT22;21030;53.912;15.214;2022-10-30T02:04:57;37.60;27.60
34815;DHT22;21030;53.912;15.214;2022-10-30T02:07:24;37.80;27.50
34815;DHT22;21030;53.912;15.214;2022-10-30T02:09:52;38.00;27.30
34815;DHT22;21030;53.912;15.214;2022-10-30T02:12:20;38.10;27.10
34815;DHT22;21030;53.912;15.214;2022-10-30T02:14:55;38.20;27.00
34815;DHT22;21030;53.912;15.214;2022-10-30T02:17:24;38.30;26.90
34815;DHT22;21030;53.912;15.214;2022-10-30T02:19:51;38.30;26.90
34815;DHT22;21030;53.912;15.214;2022-10-30T02:22:18;38.30;26.90
34815;DHT22;21030;53.912;15.214;2022-10-30T02:24:47;38.40;26.80
34815;DHT22;21030;53.912;15.214;2022-10-30T02:27:13;38.50;26.90
34815;DHT22;21030;53.912;15.214;2022-10-30T02:29:40;38.50;26.90
34815;DHT22;21030;53.912;15.214;2022-10-30T02:32:07;38.60;26.80
34815;DHT22;21030;53.912;15.214;2022-10-30T02:34:34;38.60;26.70
34815;DHT22;21030;53.912;15.214;2022-10-30T02:37:02;38.60;26.70
34815;DHT22;21030;53.912;15.214;2022-10-30T02:39:29;38.60;26.70
34815;DHT22;21030;53.912;15.214;2022-10-30T02:41:56;38.60;26.60
34815;DHT22;21030;53.912;15.214;2022-10-30T02:44:23;38.70;26.60
34815;DHT22;21030;53.912;15.214;2022-10-30T02:46:50;38.70;26.50
34815;DHT22;21030;53.912;15.214;2022-10-30T02:49:17;38.60;26.60
34815;DHT22;21030;53.912;15.214;2022-10-30T02:51:44;38.70;26.50
34815;DHT22;21030;53.912;15.214;2022-10-30T02:54:11;38.70;26.60
34815;DHT22;21030;53.912;15.214;2022-10-30T02:56:41;38.60;26.60
34815;DHT22;21030;53.912;15.214;2022-10-30T02:59:08;38.50;26.70
34815;DHT22;21030;53.912;15.214;2022-10-30T03:01:35;38.50;26.70
34815;DHT22;21030;53.912;15.214;2022-10-30T03:04:02;38.50;26.70
34815;DHT22;21030;53.912;15.214;2022-10-30T03:06:29;38.60;26.70
34815;DHT22;21030;53.912;15.214;2022-10-30T03:08:56;38.60;26.70
34815;DHT22;21030;53.912;15.214;2022-10-30T03:11:23;38.50;26.70
34815;DHT22;21030;53.912;15.214;2022-10-30T03:13:50;38.60;26.70
34815;DHT22;21030;53.912;15.214;2022-10-30T03:16:22;38.70;26.70
34815;DHT22;21030;53.912;15.214;2022-10-30T03:18:50;38.70;26.50
34815;DHT22;21030;53.912;15.214;2022-10-30T03:21:20;38.70;26.50
34815;DHT22;21030;53.912;15.214;2022-10-30T03:23:47;38.80;26.50
34815;DHT22;21030;53.912;15.214;2022-10-30T03:26:17;38.80;26.60
34815;DHT22;21030;53.912;15.214;2022-10-30T03:28:44;38.70;26.50
34815;DHT22;21030;53.912;15.214;2022-10-30T03:31:14;38.60;26.50
34815;DHT22;21030;53.912;15.214;2022-10-30T03:33:42;38.60;26.60
34815;DHT22;21030;53.912;15.214;2022-10-30T03:36:11;38.60;26.60
34815;DHT22;21030;53.912;15.214;2022-10-30T03:38:38;38.60;26.60
34815;DHT22;21030;53.912;15.214;2022-10-30T03:41:05;38.60;26.70
34815;DHT22;21030;53.912;15.214;2022-10-30T03:43:33;38.60;26.70
34815;DHT22;21030;53.912;15.214;2022-10-30T03:46:00;38.50;26.60
34815;DHT22;21030;53.912;15.214;2022-10-30T03:48:28;38.60;26.70
34815;DHT22;21030;53.912;15.214;2022-10-30T03:50:56;38.50;26.70
34815;DHT22;21030;53.912;15.214;2022-10-30T03:53:24;38.40;26.60
34815;DHT22;21030;53.912;15.214;2022-10-30T03:55:56;38.50;26.60
34815;DHT22;21030;53.912;15.214;2022-10-30T03:58:23;38.60;26.60
34815;DHT22;21030;53.912;15.214;2022-10-30T04:00:50;38.30;26.60
34815;DHT22;21030;53.912;15.214;2022-10-30T04:03:17;38.30;26.70
34815;DHT22;21030;53.912;15.214;2022-10-30T04:05:44;38.20;26.80
34815;DHT22;21030;53.912;15.214;2022-10-30T04:08:12;38.10;26.90
34815;DHT22;21030;53.912;15.214;2022-10-30T04:10:43;38.20;27.00
34815;DHT22;21030;53.912;15.214;2022-10-30T04:13:13;38.20;26.90
34815;DHT22;21030;53.912;15.214;2022-10-30T04:15:41;38.20;27.00
34815;DHT22;21030;53.912;15.214;2022-10-30T04:18:10;38.20;27.00
34815;DHT22;21030;53.912;15.214;2022-10-30T04:20:37;38.20;27.00
34815;DHT22;21030;53.912;15.214;2022-10-30T04:23:06;38.20;26.90
34815;DHT22;21030;53.912;15.214;2022-10-30T04:25:35;38.20;26.90
34815;DHT22;21030;53.912;15.214;2022-10-30T04:28:02;38.10;27.10
34815;DHT22;21030;53.912;15.214;2022-10-30T04:30:29;38.20;27.00
34815;DHT22;21030;53.912;15.214;2022-10-30T04:33:02;38.30;27.00
34815;DHT22;21030;53.912;15.214;2022-10-30T04:35:32;38.30;26.80
34815;DHT22;21030;53.912;15.214;2022-10-30T04:38:11;38.40;26.80
34815;DHT22;21030;53.912;15.214;2022-10-30T04:40:40;38.40;26.80
34815;DHT22;21030;53.912;15.214;2022-10-30T04:43:09;38.40;26.70
34815;DHT22;21030;53.912;15.214;2022-10-30T04:45:38;38.30;26.80
34815;DHT22;21030;53.912;15.214;2022-10-30T04:48:17;38.20;26.70
34815;DHT22;21030;53.912;15.214;2022-10-30T04:50:44;38.10;26.80
34815;DHT22;21030;53.912;15.214;2022-10-30T04:53:16;38.10;26.80
34815;DHT22;21030;53.912;15.214;2022-10-30T04:55:44;38.20;26.70
34815;DHT22;21030;53.912;15.214;2022-10-30T04:58:11;38.30;26.80
34815;DHT22;21030;53.912;15.214;2022-10-30T05:00:39;38.30;26.70
34815;DHT22;21030;53.912;15.214;2022-10-30T05:03:06;38.30;26.80
34815;DHT22;21030;53.912;15.214;2022-10-30T05:05:33;38.30;26.70
34815;DHT22;21030;53.912;15.214;2022-10-30T05:08:00;38.30;26.70
34815;DHT22;21030;53.912;15.214;2022-10-30T05:10:28;38.40;26.70
34815;DHT22;21030;53.912;15.214;2022-10-30T05:12:55;38.30;26.70
34815;DHT22;21030;53.912;15.214;2022-10-30T05:15:22;38.00;26.80
34815;DHT22;21030;53.912;15.214;2022-10-30T05:17:52;38.00;26.90
34815;DHT22;21030;53.912;15.214;2022-10-30T05:20:20;38.00;27.00
34815;DHT22;21030;53.912;15.214;2022-10-30T05:22:54;38.00;27.00
34815;DHT22;21030;53.912;15.214;2022-10-30T05:25:22;38.00;26.90
34815;DHT22;21030;53.912;15.214;2022-10-30T05:27:49;38.10;27.00
34815;DHT22;21030;53.912;15.214;2022-10-30T05:30:17;38.10;26.80
34815;DHT22;21030;53.912;15.214;2022-10-30T05:32:44;38.20;26.80
34815;DHT22;21030;53.912;15.214;2022-10-30T05:35:11;38.10;26.80
34815;DHT22;21030;53.912;15.214;2022-10-30T05:37:38;38.10;26.80
34815;DHT22;21030;53.912;15.214;2022-10-30T05:40:05;38.20;26.90
34815;DHT22;21030;53.912;15.214;2022-10-30T05:42:32;38.20;26.80
34815;DHT22;21030;53.912;15.214;2022-10-30T05:44:59;38.20;26.70
34815;DHT22;21030;53.912;15.214;2022-10-30T05:47:28;38.20;26.70
34815;DHT22;21030;53.912;15.214;2022-10-30T05:49:55;38.20;26.70
34815;DHT22;21030;53.912;15.214;2022-10-30T05:52:21;38.30;26.80
34815;DHT22;21030;53.912;15.214;2022-10-30T05:54:48;38.20;26.80
34815;DHT22;21030;53.912;15.214;2022-10-30T05:57:15;38.20;26.80
34815;DHT22;21030;53.912;15.214;2022-10-30T05:59:42;38.20;26.90
34815;DHT22;21030;53.912;15.214;2022-10-30T06:02:09;38.30;26.90
34815;DHT22;21030;53.912;15.214;2022-10-30T06:04:36;38.20;26.80
34815;DHT22;21030;53.912;15.214;2022-10-30T06:07:03;38.10;26.80
34815;DHT22;21030;53.912;15.214;2022-10-30T06:09:31;38.10;26.80
34815;DHT22;21030;53.912;15.214;2022-10-30T06:11:58;38.00;27.40
34815;DHT22;21030;53.912;15.214;2022-10-30T06:14:24;38.00;27.00
34815;DHT22;21030;53.912;15.214;2022-10-30T06:16:51;38.00;26.90
34815;DHT22;21030;53.912;15.214;2022-10-30T06:19:18;38.10;27.00
34815;DHT22;21030;53.912;15.214;2022-10-30T06:21:47;38.10;26.90
34815;DHT22;21030;53.912;15.214;2022-10-30T06:24:14;38.00;26.90
34815;DHT22;21030;53.912;15.214;2022-10-30T06:26:41;37.70;27.00
34815;DHT22;21030;53.912;15.214;2022-10-30T06:29:08;37.90;27.10
34815;DHT22;21030;53.912;15.214;2022-10-30T06:31:35;38.00;27.00
34815;DHT22;21030;53.912;15.214;2022-10-30T06:34:02;38.00;27.30
34815;DHT22;21030;53.912;15.214;2022-10-30T06:36:29;38.10;27.00
34815;DHT22;21030;53.912;15.214;2022-10-30T06:38:56;38.20;26.90
34815;DHT22;21030;53.912;15.214;2022-10-30T06:41:23;38.10;26.80
34815;DHT22;21030;53.912;15.214;2022-10-30T06:43:55;38.10;26.70
34815;DHT22;21030;53.912;15.214;2022-10-30T06:46:22;37.90;27.00
34815;DHT22;21030;53.912;15.214;2022-10-30T06:48:56;37.90;27.10
34815;DHT22;21030;53.912;15.214;2022-10-30T06:51:23;38.00;27.00
34815;DHT22;21030;53.912;15.214;2022-10-30T06:53:50;37.90;27.10
34815;DHT22;21030;53.912;15.214;2022-10-30T06:56:17;37.90;27.10
34815;DHT22;21030;53.912;15.214;2022-10-30T06:58:44;37.70;26.90
34815;DHT22;21030;53.912;15.214;2022-10-30T07:01:11;37.90;27.20
34815;DHT22;21030;53.912;15.214;2022-10-30T07:03:38;37.90;27.20
34815;DHT22;21030;53.912;15.214;2022-10-30T07:06:06;37.70;27.10
34815;DHT22;21030;53.912;15.214;2022-10-30T07:08:33;37.60;27.20
34815;DHT22;21030;53.912;15.214;2022-10-30T07:11:00;37.60;27.30
34815;DHT22;21030;53.912;15.214;2022-10-30T07:13:27;36.90;27.60
34815;DHT22;21030;53.912;15.214;2022-10-30T07:15:54;37.10;27.60
34815;DHT22;21030;53.912;15.214;2022-10-30T07:18:21;37.60;27.70
34815;DHT22;21030;53.912;15.214;2022-10-30T07:20:53;37.50;27.40
34815;DHT22;21030;53.912;15.214;2022-10-30T07:23:22;37.60;27.40
34815;DHT22;21030;53.912;15.214;2022-10-30T07:25:49;37.40;27.40
34815;DHT22;21030;53.912;15.214;2022-10-30T07:28:16;37.50;27.50
34815;DHT22;21030;53.912;15.214;2022-10-30T07:30:43;37.90;27.50
34815;DHT22;21030;53.912;15.214;2022-10-30T07:33:10;37.80;27.40
34815;DHT22;21030;53.912;15.214;2022-10-30T07:35:37;37.90;27.50
34815;DHT22;21030;53.912;15.214;2022-10-30T07:38:07;37.90;27.50
34815;DHT22;21030;53.912;15.214;2022-10-30T07:40:36;38.10;27.60
34815;DHT22;21030;53.912;15.214;2022-10-30T07:43:03;38.30;27.40
34815;DHT22;21030;53.912;15.214;2022-10-30T07:45:31;38.40;27.30
34815;DHT22;21030;53.912;15.214;2022-10-30T07:47:58;38.30;27.30
34815;DHT22;21030;53.912;15.214;2022-10-30T07:50:27;38.10;27.50
34815;DHT22;21030;53.912;15.214;2022-10-30T07:52:56;38.20;27.60
34815;DHT22;21030;53.912;15.214;2022-10-30T07:55:25;38.20;27.50
34815;DHT22;21030;53.912;15.214;2022-10-30T07:57:51;38.30;27.40
34815;DHT22;21030;53.912;15.214;2022-10-30T08:00:19;38.10;27.70
34815;DHT22;21030;53.912;15.214;2022-10-30T08:02:50;38.30;27.60
34815;DHT22;21030;53.912;15.214;2022-10-30T08:05:17;38.60;27.50
34815;DHT22;21030;53.912;15.214;2022-10-30T08:07:45;38.60;27.40
34815;DHT22;21030;53.912;15.214;2022-10-30T08:10:13;38.50;27.30
34815;DHT22;21030;53.912;15.214;2022-10-30T08:12:41;38.60;27.30
34815;DHT22;21030;53.912;15.214;2022-10-30T08:15:11;38.70;27.40
34815;DHT22;21030;53.912;15.214;2022-10-30T08:17:46;38.70;27.30
34815;DHT22;21030;53.912;15.214;2022-10-30T08:20:18;38.90;27.30
34815;DHT22;21030;53.912;15.214;2022-10-30T08:22:54;39.00;27.20
34815;DHT22;21030;53.912;15.214;2022-10-30T08:25:25;39.00;27.80
34815;DHT22;21030;53.912;15.214;2022-10-30T08:30:30;39.20;27.10
34815;DHT22;21030;53.912;15.214;2022-10-30T08:33:02;39.20;27.30
34815;DHT22;21030;53.912;15.214;2022-10-30T08:35:30;39.30;27.30
34815;DHT22;21030;53.912;15.214;2022-10-30T08:37:59;39.20;27.20
34815;DHT22;21030;53.912;15.214;2022-10-30T08:40:28;39.20;27.20
34815;DHT22;21030;53.912;15.214;2022-10-30T08:42:56;39.00;27.40
34815;DHT22;21030;53.912;15.214;2022-10-30T08:45:24;39.10;27.30
34815;DHT22;21030;53.912;15.214;2022-10-30T08:48:01;39.20;27.30
34815;DHT22;21030;53.912;15.214;2022-10-30T08:50:32;39.30;27.30
34815;DHT22;21030;53.912;15.214;2022-10-30T08:53:01;39.20;27.30
34815;DHT22;21030;53.912;15.214;2022-10-30T08:55:30;39.20;27.50
34815;DHT22;21030;53.912;15.214;2022-10-30T08:57:57;39.30;27.60
34815;DHT22;21030;53.912;15.214;2022-10-30T09:00:25;39.00;27.70
34815;DHT22;21030;53.912;15.214;2022-10-30T09:02:52;39.10;27.60
34815;DHT22;21030;53.912;15.214;2022-10-30T09:05:20;38.80;27.90
34815;DHT22;21030;53.912;15.214;2022-10-30T09:07:47;38.90;28.00
34815;DHT22;21030;53.912;15.214;2022-10-30T09:10:15;38.80;28.00
34815;DHT22;21030;53.912;15.214;2022-10-30T09:12:42;38.50;28.20
34815;DHT22;21030;53.912;15.214;2022-10-30T09:15:09;38.20;28.20
34815;DHT22;21030;53.912;15.214;2022-10-30T09:17:36;38.20;28.40
34815;DHT22;21030;53.912;15.214;2022-10-30T09:20:03;38.40;28.70
34815;DHT22;21030;53.912;15.214;2022-10-30T09:22:30;38.40;28.60
34815;DHT22;21030;53.912;15.214;2022-10-30T09:24:57;38.70;28.60
34815;DHT22;21030;53.912;15.214;2022-10-30T09:27:24;38.80;28.40
34815;DHT22;21030;53.912;15.214;2022-10-30T09:29:53;39.00;28.40
34815;DHT22;21030;53.912;15.214;2022-10-30T09:32:20;39.00;28.40
34815;DHT22;21030;53.912;15.214;2022-10-30T09:34:47;38.70;28.50
34815;DHT22;21030;53.912;15.214;2022-10-30T09:37:14;39.00;28.60
34815;DHT22;21030;53.912;15.214;2022-10-30T09:39:42;38.80;28.20
34815;DHT22;21030;53.912;15.214;2022-10-30T09:49:06;38.90;28.40
34815;DHT22;21030;53.912;15.214;2022-10-30T09:51:23;38.40;28.70
34815;DHT22;21030;53.912;15.214;2022-10-30T09:57:06;38.80;28.90
34815;DHT22;21030;53.912;15.214;2022-10-30T10:04:50;40.40;27.80
34815;DHT22;21030;53.912;15.214;2022-10-30T10:07:21;40.90;27.30
34815;DHT22;21030;53.912;15.214;2022-10-30T10:09:49;40.70;27.10
34815;DHT22;21030;53.912;15.214;2022-10-30T10:12:28;40.90;27.10
34815;DHT22;21030;53.912;15.214;2022-10-30T10:14:57;41.20;26.90
34815;DHT22;21030;53.912;15.214;2022-10-30T10:17:44;41.70;26.50
34815;DHT22;21030;53.912;15.214;2022-10-30T10:20:16;42.40;26.00
34815;DHT22;21030;53.912;15.214;2022-10-30T10:22:49;42.70;25.70
34815;DHT22;21030;53.912;15.214;2022-10-30T10:25:19;42.40;25.30
34815;DHT22;21030;53.912;15.214;2022-10-30T10:31:09;42.60;25.50
34815;DHT22;21030;53.912;15.214;2022-10-30T10:34:15;42.90;25.20
34815;DHT22;21030;53.912;15.214;2022-10-30T10:40:25;42.70;25.30
34815;DHT22;21030;53.912;15.214;2022-10-30T10:51:36;42.80;25.60
34815;DHT22;21030;53.912;15.214;2022-10-30T10:56:45;44.40;24.70
34815;DHT22;21030;53.912;15.214;2022-10-30T10:59:22;44.70;24.10
34815;DHT22;21030;53.912;15.214;2022-10-30T11:04:44;45.40;23.60
34815;DHT22;21030;53.912;15.214;2022-10-30T11:09:48;45.50;23.20
34815;DHT22;21030;53.912;15.214;2022-10-30T11:12:39;44.60;23.60
34815;DHT22;21030;53.912;15.214;2022-10-30T11:15:40;44.10;23.60
34815;DHT22;21030;53.912;15.214;2022-10-30T11:18:10;44.10;24.00
34815;DHT22;21030;53.912;15.214;2022-10-30T11:20:55;44.00;24.10
34815;DHT22;21030;53.912;15.214;2022-10-30T11:23:31;44.20;24.10
34815;DHT22;21030;53.912;15.214;2022-10-30T11:25:58;44.20;24.10
34815;DHT22;21030;53.912;15.214;2022-10-30T11:28:41;44.50;24.00
34815;DHT22;21030;53.912;15.214;2022-10-30T11:34:26;44.50;23.90
34815;DHT22;21030;53.912;15.214;2022-10-30T11:36:54;44.40;24.10
34815;DHT22;21030;53.912;15.214;2022-10-30T11:39:33;44.70;23.80
34815;DHT22;21030;53.912;15.214;2022-10-30T11:42:13;44.80;23.60
34815;DHT22;21030;53.912;15.214;2022-10-30T11:44:47;44.90;23.50
34815;DHT22;21030;53.912;15.214;2022-10-30T11:47:17;44.80;23.40
34815;DHT22;21030;53.912;15.214;2022-10-30T11:49:59;45.20;23.60
34815;DHT22;21030;53.912;15.214;2022-10-30T11:52:27;45.70;23.40
34815;DHT22;21030;53.912;15.214;2022-10-30T11:54:59;45.40;23.20
34815;DHT22;21030;53.912;15.214;2022-10-30T11:57:52;45.00;23.40
34815;DHT22;21030;53.912;15.214;2022-10-30T12:00:26;44.80;23.60
34815;DHT22;21030;53.912;15.214;2022-10-30T12:02:55;45.10;23.70
34815;DHT22;21030;53.912;15.214;2022-10-30T12:11:03;44.30;23.70
34815;DHT22;21030;53.912;15.214;2022-10-30T12:13:35;43.70;24.20
34815;DHT22;21030;53.912;15.214;2022-10-30T12:18:33;43.90;24.20
34815;DHT22;21030;53.912;15.214;2022-10-30T12:21:01;44.30;24.30
34815;DHT22;21030;53.912;15.214;2022-10-30T12:23:29;43.80;24.30
34815;DHT22;21030;53.912;15.214;2022-10-30T12:26:00;44.00;24.40
34815;DHT22;21030;53.912;15.214;2022-10-30T12:28:29;44.20;24.30
34815;DHT22;21030;53.912;15.214;2022-10-30T12:33:39;44.70;23.90
34815;DHT22;21030;53.912;15.214;2022-10-30T12:36:19;45.10;23.80
34815;DHT22;21030;53.912;15.214;2022-10-30T12:38:51;45.00;23.70
34815;DHT22;21030;53.912;15.214;2022-10-30T12:41:30;44.60;23.60
34815;DHT22;21030;53.912;15.214;2022-10-30T12:44:12;44.70;23.90
34815;DHT22;21030;53.912;15.214;2022-10-30T12:49:27;44.70;23.90
34815;DHT22;21030;53.912;15.214;2022-10-30T12:52:04;44.30;23.80
34815;DHT22;21030;53.912;15.214;2022-10-30T12:57:20;44.90;24.00
34815;DHT22;21030;53.912;15.214;2022-10-30T13:02:59;45.20;23.80
34815;DHT22;21030;53.912;15.214;2022-10-30T13:05:44;45.20;23.60
34815;DHT22;21030;53.912;15.214;2022-10-30T13:08:31;45.30;23.80
34815;DHT22;21030;53.912;15.214;2022-10-30T13:13:49;46.00;23.50
34815;DHT22;21030;53.912;15.214;2022-10-30T13:16:28;46.10;23.30
34815;DHT22;21030;53.912;15.214;2022-10-30T13:19:00;46.40;23.20
34815;DHT22;21030;53.912;15.214;2022-10-30T13:30:12;46.30;23.10
34815;DHT22;21030;53.912;15.214;2022-10-30T13:46:39;46.40;23.00
34815;DHT22;21030;53.912;15.214;2022-10-30T13:54:54;46.40;22.90
34815;DHT22;21030;53.912;15.214;2022-10-30T13:57:49;46.60;22.80
34815;DHT22;21030;53.912;15.214;2022-10-30T14:01:08;46.40;22.70
34815;DHT22;21030;53.912;15.214;2022-10-30T14:10:52;46.10;23.30
34815;DHT22;21030;53.912;15.214;2022-10-30T14:13:44;45.80;23.50
34815;DHT22;21030;53.912;15.214;2022-10-30T14:16:34;45.80;23.60
34815;DHT22;21030;53.912;15.214;2022-10-30T14:19:05;45.80;23.60
34815;DHT22;21030;53.912;15.214;2022-10-30T14:26:47;45.60;23.70
34815;DHT22;21030;53.912;15.214;2022-10-30T14:29:39;45.60;23.80
34815;DHT22;21030;53.912;15.214;2022-10-30T14:40:30;45.20;24.30
34815;DHT22;21030;53.912;15.214;2022-10-30T14:43:07;45.00;24.10
34815;DHT22;21030;53.912;15.214;2022-10-30T14:45:49;45.00;24.20
34815;DHT22;21030;53.912;15.214;2022-10-30T14:48:27;44.70;24.50
34815;DHT22;21030;53.912;15.214;2022-10-30T15:02:02;43.80;25.40
34815;DHT22;21030;53.912;15.214;2022-10-30T15:07:52;43.40;25.50
34815;DHT22;21030;53.912;15.214;2022-10-30T15:10:34;43.30;25.50
34815;DHT22;21030;53.912;15.214;2022-10-30T15:13:19;43.00;25.80
34815;DHT22;21030;53.912;15.214;2022-10-30T15:16:04;42.70;25.70
34815;DHT22;21030;53.912;15.214;2022-10-30T15:18:33;42.70;26.00
34815;DHT22;21030;53.912;15.214;2022-10-30T15:21:06;42.60;26.30
34815;DHT22;21030;53.912;15.214;2022-10-30T15:23:35;42.50;26.50
34815;DHT22;21030;53.912;15.214;2022-10-30T15:26:15;42.20;26.70
34815;DHT22;21030;53.912;15.214;2022-10-30T15:28:50;42.00;26.90
34815;DHT22;21030;53.912;15.214;2022-10-30T15:31:25;41.90;27.00
34815;DHT22;21030;53.912;15.214;2022-10-30T15:33:53;41.80;27.10
34815;DHT22;21030;53.912;15.214;2022-10-30T15:36:26;41.70;27.10
34815;DHT22;21030;53.912;15.214;2022-10-30T15:39:16;41.60;27.20
34815;DHT22;21030;53.912;15.214;2022-10-30T15:41:57;41.50;27.30
34815;DHT22;21030;53.912;15.214;2022-10-30T15:44:27;41.40;27.40
34815;DHT22;21030;53.912;15.214;2022-10-30T15:46:55;41.30;27.50
34815;DHT22;21030;53.912;15.214;2022-10-30T15:49:47;41.20;27.50
34815;DHT22;21030;53.912;15.214;2022-10-30T15:54:53;40.80;27.90
34815;DHT22;21030;53.912;15.214;2022-10-30T15:57:27;40.50;28.20
34815;DHT22;21030;53.912;15.214;2022-10-30T16:05:39;40.00;29.20
34815;DHT22;21030;53.912;15.214;2022-10-30T16:08:21;39.80;28.70
34815;DHT22;21030;53.912;15.214;2022-10-30T16:10:51;39.30;29.00
34815;DHT22;21030;53.912;15.214;2022-10-30T16:13:26;38.90;29.60
34815;DHT22;21030;53.912;15.214;2022-10-30T16:15:54;38.60;29.80
34815;DHT22;21030;53.912;15.214;2022-10-30T16:18:32;38.20;30.00
34815;DHT22;21030;53.912;15.214;2022-10-30T16:21:05;37.90;30.40
34815;DHT22;21030;53.912;15.214;2022-10-30T16:23:39;37.60;30.90
34815;DHT22;21030;53.912;15.214;2022-10-30T16:26:30;37.60;30.90
34815;DHT22;21030;53.912;15.214;2022-10-30T16:31:42;37.50;31.20
34815;DHT22;21030;53.912;15.214;2022-10-30T16:34:18;38.10;30.80
34815;DHT22;21030;53.912;15.214;2022-10-30T16:36:46;38.20;30.40
34815;DHT22;21030;53.912;15.214;2022-10-30T16:39:18;37.80;30.30
34815;DHT22;21030;53.912;15.214;2022-10-30T16:41:47;38.10;30.20
34815;DHT22;21030;53.912;15.214;2022-10-30T16:44:33;38.10;30.20
34815;DHT22;21030;53.912;15.214;2022-10-30T16:47:23;38.00;30.20
34815;DHT22;21030;53.912;15.214;2022-10-30T16:49:55;37.40;30.70
34815;DHT22;21030;53.912;15.214;2022-10-30T16:52:31;37.20;31.00
34815;DHT22;21030;53.912;15.214;2022-10-30T16:55:19;37.20;31.30
34815;DHT22;21030;53.912;15.214;2022-10-30T16:57:53;37.20;31.20
34815;DHT22;21030;53.912;15.214;2022-10-30T17:00:26;37.70;30.90
34815;DHT22;21030;53.912;15.214;2022-10-30T17:03:09;38.30;30.00
34815;DHT22;21030;53.912;15.214;2022-10-30T17:05:37;38.70;29.60
34815;DHT22;21030;53.912;15.214;2022-10-30T17:10:55;38.30;29.70
34815;DHT22;21030;53.912;15.214;2022-10-30T17:16:21;36.90;31.10
34815;DHT22;21030;53.912;15.214;2022-10-30T17:18:53;36.50;31.70
34815;DHT22;21030;53.912;15.214;2022-10-30T17:21:35;36.80;31.60
34815;DHT22;21030;53.912;15.214;2022-10-30T17:24:15;36.60;31.60
34815;DHT22;21030;53.912;15.214;2022-10-30T17:26:59;36.60;31.90
34815;DHT22;21030;53.912;15.214;2022-10-30T17:32:04;36.70;31.90
34815;DHT22;21030;53.912;15.214;2022-10-30T17:34:36;37.10;31.70
34815;DHT22;21030;53.912;15.214;2022-10-30T17:37:05;36.90;31.00
34815;DHT22;21030;53.912;15.214;2022-10-30T17:39:32;37.30;31.00
34815;DHT22;21030;53.912;15.214;2022-10-30T17:42:00;37.70;30.60
34815;DHT22;21030;53.912;15.214;2022-10-30T17:44:29;37.80;30.30
34815;DHT22;21030;53.912;15.214;2022-10-30T17:46:57;37.80;30.30
34815;DHT22;21030;53.912;15.214;2022-10-30T17:49:27;37.90;30.30
34815;DHT22;21030;53.912;15.214;2022-10-30T17:51:54;38.10;30.00
34815;DHT22;21030;53.912;15.214;2022-10-30T17:54:21;38.20;29.90
34815;DHT22;21030;53.912;15.214;2022-10-30T17:56:49;38.20;30.00
34815;DHT22;21030;53.912;15.214;2022-10-30T17:59:16;38.40;29.60
34815;DHT22;21030;53.912;15.214;2022-10-30T18:01:43;38.60;29.50
34815;DHT22;21030;53.912;15.214;2022-10-30T18:04:16;38.70;29.20
34815;DHT22;21030;53.912;15.214;2022-10-30T18:06:47;38.80;29.10
34815;DHT22;21030;53.912;15.214;2022-10-30T18:09:15;38.70;28.80
34815;DHT22;21030;53.912;15.214;2022-10-30T18:11:42;38.70;28.90
34815;DHT22;21030;53.912;15.214;2022-10-30T18:14:10;38.70;29.00
34815;DHT22;21030;53.912;15.214;2022-10-30T18:16:38;38.60;28.90
34815;DHT22;21030;53.912;15.214;2022-10-30T18:19:08;38.60;28.80
34815;DHT22;21030;53.912;15.214;2022-10-30T18:21:36;38.80;28.90
34815;DHT22;21030;53.912;15.214;2022-10-30T18:24:09;38.80;28.80
34815;DHT22;21030;53.912;15.214;2022-10-30T18:26:37;39.00;28.70
34815;DHT22;21030;53.912;15.214;2022-10-30T18:29:07;39.10;28.50
34815;DHT22;21030;53.912;15.214;2022-10-30T18:31:35;38.90;28.60
34815;DHT22;21030;53.912;15.214;2022-10-30T18:34:03;38.80;28.70
34815;DHT22;21030;53.912;15.214;2022-10-30T18:36:30;38.70;28.80